sensor_id;sensor_type;location;lat;lon;timestamp;P1;durP1;ratioP1;P2;durP2;ratioP2
735;SDS011;352;48.626;9.238;2023-08-21T00:01:30;11.23;;;9.07;;
735;SDS011;352;48.626;9.238;2023-08-21T00:04:08;10.40;;;9.50;;
735;SDS011;352;48.626;9.238;2023-08-21T00:06:39;11.93;;;8.97;;
735;SDS011;352;48.626;9.238;2023-08-21T00:09:09;12.87;;;9.40;;
735;SDS011;352;48.626;9.238;2023-08-21T00:11:43;9.07;;;8.17;;
735;SDS011;352;48.626;9.238;2023-08-21T00:14:15;10.80;;;9.67;;
735;SDS011;352;48.626;9.238;2023-08-21T00:19:39;10.03;;;9.03;;
735;SDS011;352;48.626;9.238;2023-08-21T00:22:10;9.37;;;8.43;;
735;SDS011;352;48.626;9.238;2023-08-21T00:24:37;12.00;;;9.10;;
735;SDS011;352;48.626;9.238;2023-08-21T00:27:05;10.60;;;9.60;;
735;SDS011;352;48.626;9.238;2023-08-21T00:29:44;13.27;;;9.80;;
735;SDS011;352;48.626;9.238;2023-08-21T00:32:27;12.17;;;10.90;;
735;SDS011;352;48.626;9.238;2023-08-21T00:35:02;10.33;;;9.33;;
735;SDS011;352;48.626;9.238;2023-08-21T00:37:43;14.50;;;9.33;;
735;SDS011;352;48.626;9.238;2023-08-21T00:40:30;10.47;;;8.60;;
735;SDS011;352;48.626;9.238;2023-08-21T00:43:09;12.40;;;9.23;;
735;SDS011;352;48.626;9.238;2023-08-21T00:45:43;9.83;;;8.93;;
735;SDS011;352;48.626;9.238;2023-08-21T00:48:25;12.50;;;9.10;;
735;SDS011;352;48.626;9.238;2023-08-21T00:51:05;10.17;;;9.17;;
735;SDS011;352;48.626;9.238;2023-08-21T00:53:37;11.33;;;10.23;;
735;SDS011;352;48.626;9.238;2023-08-21T00:56:13;11.10;;;10.00;;
735;SDS011;352;48.626;9.238;2023-08-21T00:58:54;12.00;;;10.37;;
735;SDS011;352;48.626;9.238;2023-08-21T01:01:35;10.30;;;9.27;;
735;SDS011;352;48.626;9.238;2023-08-21T01:04:12;10.10;;;9.20;;
735;SDS011;352;48.626;9.238;2023-08-21T01:07:02;12.10;;;9.53;;
735;SDS011;352;48.626;9.238;2023-08-21T01:17:11;10.70;;;9.80;;
735;SDS011;352;48.626;9.238;2023-08-21T01:22:52;9.43;;;8.53;;
735;SDS011;352;48.626;9.238;2023-08-21T01:29:03;11.63;;;10.07;;
735;SDS011;352;48.626;9.238;2023-08-21T01:31:58;10.53;;;9.63;;
735;SDS011;352;48.626;9.238;2023-08-21T01:34:47;14.13;;;9.87;;
735;SDS011;352;48.626;9.238;2023-08-21T01:37:33;10.50;;;9.60;;
735;SDS011;352;48.626;9.238;2023-08-21T01:42:43;10.60;;;9.50;;
735;SDS011;352;48.626;9.238;2023-08-21T01:45:21;10.33;;;9.33;;
735;SDS011;352;48.626;9.238;2023-08-21T01:47:57;11.37;;;9.47;;
735;SDS011;352;48.626;9.238;2023-08-21T01:51:08;9.67;;;8.67;;
735;SDS011;352;48.626;9.238;2023-08-21T01:56:43;12.50;;;9.80;;
735;SDS011;352;48.626;9.238;2023-08-21T01:59:31;10.60;;;9.60;;
735;SDS011;352;48.626;9.238;2023-08-21T02:02:32;10.13;;;9.10;;
735;SDS011;352;48.626;9.238;2023-08-21T02:05:05;13.17;;;10.00;;
735;SDS011;352;48.626;9.238;2023-08-21T02:07:44;13.37;;;10.30;;
735;SDS011;352;48.626;9.238;2023-08-21T02:10:24;9.03;;;8.23;;
735;SDS011;352;48.626;9.238;2023-08-21T02:12:53;9.57;;;8.67;;
735;SDS011;352;48.626;9.238;2023-08-21T02:15:24;11.13;;;10.00;;
735;SDS011;352;48.626;9.238;2023-08-21T02:18:03;9.00;;;8.23;;
735;SDS011;352;48.626;9.238;2023-08-21T02:20:46;10.97;;;8.40;;
735;SDS011;352;48.626;9.238;2023-08-21T02:23:31;9.37;;;8.57;;
735;SDS011;352;48.626;9.238;2023-08-21T02:26:24;9.03;;;8.17;;
735;SDS011;352;48.626;9.238;2023-08-21T02:29:13;10.67;;;9.47;;
735;SDS011;352;48.626;9.238;2023-08-21T02:32:04;10.40;;;9.47;;
735;SDS011;352;48.626;9.238;2023-08-21T02:34:44;9.90;;;8.90;;
735;SDS011;352;48.626;9.238;2023-08-21T02:37:20;10.53;;;9.47;;
735;SDS011;352;48.626;9.238;2023-08-21T02:40:09;11.13;;;9.30;;
735;SDS011;352;48.626;9.238;2023-08-21T02:42:41;10.70;;;9.43;;
735;SDS011;352;48.626;9.238;2023-08-21T02:45:12;9.73;;;8.83;;
735;SDS011;352;48.626;9.238;2023-08-21T02:47:57;9.97;;;9.00;;
735;SDS011;352;48.626;9.238;2023-08-21T02:50:33;12.20;;;9.07;;
735;SDS011;352;48.626;9.238;2023-08-21T02:53:06;11.40;;;10.20;;
735;SDS011;352;48.626;9.238;2023-08-21T02:55:46;11.60;;;9.37;;
735;SDS011;352;48.626;9.238;2023-08-21T02:58:28;9.97;;;8.97;;
735;SDS011;352;48.626;9.238;2023-08-21T03:03:55;9.77;;;8.77;;
735;SDS011;352;48.626;9.238;2023-08-21T03:06:49;9.67;;;8.70;;
735;SDS011;352;48.626;9.238;2023-08-21T03:09:37;9.30;;;8.43;;
735;SDS011;352;48.626;9.238;2023-08-21T03:12:16;9.37;;;8.57;;
735;SDS011;352;48.626;9.238;2023-08-21T03:14:58;10.50;;;9.60;;
735;SDS011;352;48.626;9.238;2023-08-21T03:17:39;10.20;;;9.20;;
735;SDS011;352;48.626;9.238;2023-08-21T03:23:34;10.30;;;8.63;;
735;SDS011;352;48.626;9.238;2023-08-21T03:26:15;12.87;;;9.40;;
735;SDS011;352;48.626;9.238;2023-08-21T03:28:54;11.63;;;10.20;;
735;SDS011;352;48.626;9.238;2023-08-21T03:31:33;11.03;;;9.87;;
735;SDS011;352;48.626;9.238;2023-08-21T03:34:09;9.80;;;8.33;;
735;SDS011;352;48.626;9.238;2023-08-21T03:36:46;11.73;;;9.80;;
735;SDS011;352;48.626;9.238;2023-08-21T03:39:24;11.60;;;10.40;;
735;SDS011;352;48.626;9.238;2023-08-21T03:41:59;11.57;;;10.47;;
735;SDS011;352;48.626;9.238;2023-08-21T03:44:31;10.27;;;9.30;;
735;SDS011;352;48.626;9.238;2023-08-21T03:47:17;12.10;;;9.90;;
735;SDS011;352;48.626;9.238;2023-08-21T03:50:08;12.87;;;10.40;;
735;SDS011;352;48.626;9.238;2023-08-21T03:52:59;9.70;;;8.77;;
735;SDS011;352;48.626;9.238;2023-08-21T03:55:36;12.87;;;9.10;;
735;SDS011;352;48.626;9.238;2023-08-21T04:00:51;12.00;;;10.30;;
735;SDS011;352;48.626;9.238;2023-08-21T04:03:44;10.67;;;9.10;;
735;SDS011;352;48.626;9.238;2023-08-21T04:06:31;13.43;;;9.10;;
735;SDS011;352;48.626;9.238;2023-08-21T04:12:46;11.27;;;10.17;;
735;SDS011;352;48.626;9.238;2023-08-21T04:15:48;10.20;;;9.30;;
735;SDS011;352;48.626;9.238;2023-08-21T04:19:08;11.00;;;9.77;;
735;SDS011;352;48.626;9.238;2023-08-21T04:27:55;12.03;;;10.30;;
735;SDS011;352;48.626;9.238;2023-08-21T04:30:39;10.57;;;8.67;;
735;SDS011;352;48.626;9.238;2023-08-21T04:33:07;11.57;;;9.07;;
735;SDS011;352;48.626;9.238;2023-08-21T04:35:36;9.33;;;8.53;;
735;SDS011;352;48.626;9.238;2023-08-21T04:38:04;10.73;;;9.60;;
735;SDS011;352;48.626;9.238;2023-08-21T04:40:32;10.87;;;9.00;;
735;SDS011;352;48.626;9.238;2023-08-21T04:43:01;11.27;;;10.17;;
735;SDS011;352;48.626;9.238;2023-08-21T04:45:28;10.30;;;9.17;;
735;SDS011;352;48.626;9.238;2023-08-21T04:47:56;10.13;;;9.23;;
735;SDS011;352;48.626;9.238;2023-08-21T04:50:23;16.90;;;8.90;;
735;SDS011;352;48.626;9.238;2023-08-21T04:52:50;10.73;;;9.10;;
735;SDS011;352;48.626;9.238;2023-08-21T04:55:18;10.73;;;9.60;;
735;SDS011;352;48.626;9.238;2023-08-21T04:57:45;11.90;;;10.03;;
735;SDS011;352;48.626;9.238;2023-08-21T05:00:15;11.27;;;10.17;;
735;SDS011;352;48.626;9.238;2023-08-21T05:02:42;19.33;;;9.93;;
735;SDS011;352;48.626;9.238;2023-08-21T05:05:10;10.53;;;9.40;;
735;SDS011;352;48.626;9.238;2023-08-21T05:07:37;10.30;;;9.30;;
735;SDS011;352;48.626;9.238;2023-08-21T05:10:05;13.03;;;9.90;;
735;SDS011;352;48.626;9.238;2023-08-21T05:12:33;10.67;;;9.30;;
735;SDS011;352;48.626;9.238;2023-08-21T05:15:00;11.20;;;10.00;;
735;SDS011;352;48.626;9.238;2023-08-21T05:17:29;9.10;;;8.30;;
735;SDS011;352;48.626;9.238;2023-08-21T05:19:56;10.50;;;9.27;;
735;SDS011;352;48.626;9.238;2023-08-21T05:22:23;11.90;;;10.27;;
735;SDS011;352;48.626;9.238;2023-08-21T05:24:50;12.57;;;10.13;;
735;SDS011;352;48.626;9.238;2023-08-21T05:27:18;11.30;;;9.90;;
735;SDS011;352;48.626;9.238;2023-08-21T05:29:45;10.07;;;9.07;;
735;SDS011;352;48.626;9.238;2023-08-21T05:32:14;10.83;;;9.80;;
735;SDS011;352;48.626;9.238;2023-08-21T05:34:44;10.80;;;9.50;;
735;SDS011;352;48.626;9.238;2023-08-21T05:37:11;17.30;;;12.43;;
735;SDS011;352;48.626;9.238;2023-08-21T05:46:12;10.80;;;9.47;;
735;SDS011;352;48.626;9.238;2023-08-21T05:48:39;16.17;;;14.83;;
735;SDS011;352;48.626;9.238;2023-08-21T05:51:08;11.03;;;9.87;;
735;SDS011;352;48.626;9.238;2023-08-21T05:53:34;12.40;;;9.90;;
735;SDS011;352;48.626;9.238;2023-08-21T05:56:02;14.43;;;10.97;;
735;SDS011;352;48.626;9.238;2023-08-21T05:58:28;11.57;;;9.40;;
735;SDS011;352;48.626;9.238;2023-08-21T06:00:57;11.50;;;10.20;;
735;SDS011;352;48.626;9.238;2023-08-21T06:03:24;10.73;;;9.53;;
735;SDS011;352;48.626;9.238;2023-08-21T06:05:51;11.33;;;9.73;;
735;SDS011;352;48.626;9.238;2023-08-21T06:08:19;10.90;;;9.63;;
735;SDS011;352;48.626;9.238;2023-08-21T06:10:50;11.13;;;10.07;;
735;SDS011;352;48.626;9.238;2023-08-21T06:13:17;9.60;;;8.70;;
735;SDS011;352;48.626;9.238;2023-08-21T06:15:44;11.60;;;10.40;;
735;SDS011;352;48.626;9.238;2023-08-21T06:18:11;9.93;;;9.13;;
735;SDS011;352;48.626;9.238;2023-08-21T06:20:38;10.30;;;9.30;;
735;SDS011;352;48.626;9.238;2023-08-21T06:23:05;10.17;;;9.00;;
735;SDS011;352;48.626;9.238;2023-08-21T06:25:33;13.17;;;10.97;;
735;SDS011;352;48.626;9.238;2023-08-21T06:28:00;15.60;;;13.57;;
735;SDS011;352;48.626;9.238;2023-08-21T06:30:27;9.10;;;8.03;;
735;SDS011;352;48.626;9.238;2023-08-21T06:32:54;8.40;;;7.80;;
735;SDS011;352;48.626;9.238;2023-08-21T06:35:21;11.40;;;10.40;;
735;SDS011;352;48.626;9.238;2023-08-21T06:37:47;9.47;;;8.77;;
735;SDS011;352;48.626;9.238;2023-08-21T06:40:14;9.13;;;8.43;;
735;SDS011;352;48.626;9.238;2023-08-21T06:42:42;11.27;;;10.30;;
735;SDS011;352;48.626;9.238;2023-08-21T06:45:09;13.33;;;12.13;;
735;SDS011;352;48.626;9.238;2023-08-21T06:47:36;9.37;;;8.53;;
735;SDS011;352;48.626;9.238;2023-08-21T06:50:02;10.13;;;9.17;;
735;SDS011;352;48.626;9.238;2023-08-21T06:52:30;10.10;;;9.10;;
735;SDS011;352;48.626;9.238;2023-08-21T06:54:56;10.77;;;9.87;;
735;SDS011;352;48.626;9.238;2023-08-21T06:57:23;9.90;;;9.10;;
735;SDS011;352;48.626;9.238;2023-08-21T06:59:51;11.00;;;10.00;;
735;SDS011;352;48.626;9.238;2023-08-21T07:02:18;12.43;;;10.70;;
735;SDS011;352;48.626;9.238;2023-08-21T07:04:44;11.90;;;10.83;;
735;SDS011;352;48.626;9.238;2023-08-21T07:07:11;14.10;;;12.57;;
735;SDS011;352;48.626;9.238;2023-08-21T07:09:38;12.93;;;10.50;;
735;SDS011;352;48.626;9.238;2023-08-21T07:12:05;11.07;;;9.93;;
735;SDS011;352;48.626;9.238;2023-08-21T07:14:32;11.77;;;10.67;;
735;SDS011;352;48.626;9.238;2023-08-21T07:17:00;11.00;;;9.90;;
735;SDS011;352;48.626;9.238;2023-08-21T07:19:27;11.70;;;10.67;;
735;SDS011;352;48.626;9.238;2023-08-21T07:21:54;10.53;;;9.60;;
735;SDS011;352;48.626;9.238;2023-08-21T07:24:21;11.30;;;10.40;;
735;SDS011;352;48.626;9.238;2023-08-21T07:26:47;12.87;;;11.40;;
735;SDS011;352;48.626;9.238;2023-08-21T07:29:14;13.57;;;12.30;;
735;SDS011;352;48.626;9.238;2023-08-21T07:31:41;11.87;;;10.67;;
735;SDS011;352;48.626;9.238;2023-08-21T07:34:09;10.23;;;9.37;;
735;SDS011;352;48.626;9.238;2023-08-21T07:36:35;11.33;;;10.43;;
735;SDS011;352;48.626;9.238;2023-08-21T07:39:02;10.63;;;9.73;;
735;SDS011;352;48.626;9.238;2023-08-21T07:41:29;10.87;;;9.83;;
735;SDS011;352;48.626;9.238;2023-08-21T07:43:55;13.70;;;10.20;;
735;SDS011;352;48.626;9.238;2023-08-21T07:46:22;11.43;;;10.27;;
735;SDS011;352;48.626;9.238;2023-08-21T07:48:49;11.90;;;10.93;;
735;SDS011;352;48.626;9.238;2023-08-21T07:51:17;11.03;;;10.10;;
735;SDS011;352;48.626;9.238;2023-08-21T07:53:45;11.30;;;10.17;;
735;SDS011;352;48.626;9.238;2023-08-21T07:56:11;12.27;;;11.17;;
735;SDS011;352;48.626;9.238;2023-08-21T07:58:38;11.57;;;10.53;;
735;SDS011;352;48.626;9.238;2023-08-21T08:01:05;10.67;;;9.80;;
735;SDS011;352;48.626;9.238;2023-08-21T08:03:32;12.10;;;11.10;;
735;SDS011;352;48.626;9.238;2023-08-21T08:05:58;11.60;;;10.07;;
735;SDS011;352;48.626;9.238;2023-08-21T08:08:26;11.47;;;10.57;;
735;SDS011;352;48.626;9.238;2023-08-21T08:10:54;10.83;;;9.73;;
735;SDS011;352;48.626;9.238;2023-08-21T08:13:20;10.73;;;9.67;;
735;SDS011;352;48.626;9.238;2023-08-21T08:15:47;11.27;;;9.83;;
735;SDS011;352;48.626;9.238;2023-08-21T08:18:14;10.20;;;9.40;;
735;SDS011;352;48.626;9.238;2023-08-21T08:20:41;11.20;;;10.20;;
735;SDS011;352;48.626;9.238;2023-08-21T08:23:08;11.40;;;10.30;;
735;SDS011;352;48.626;9.238;2023-08-21T08:25:36;11.10;;;10.00;;
735;SDS011;352;48.626;9.238;2023-08-21T08:28:03;10.50;;;9.60;;
735;SDS011;352;48.626;9.238;2023-08-21T08:30:29;11.47;;;10.57;;
735;SDS011;352;48.626;9.238;2023-08-21T08:32:56;10.37;;;9.37;;
735;SDS011;352;48.626;9.238;2023-08-21T08:35:23;11.27;;;10.30;;
735;SDS011;352;48.626;9.238;2023-08-21T08:37:50;11.07;;;10.13;;
735;SDS011;352;48.626;9.238;2023-08-21T08:40:16;11.57;;;10.37;;
735;SDS011;352;48.626;9.238;2023-08-21T08:42:45;9.80;;;8.90;;
735;SDS011;352;48.626;9.238;2023-08-21T08:45:12;9.10;;;8.50;;
735;SDS011;352;48.626;9.238;2023-08-21T08:47:40;12.13;;;11.03;;
735;SDS011;352;48.626;9.238;2023-08-21T08:50:07;9.73;;;8.83;;
735;SDS011;352;48.626;9.238;2023-08-21T08:52:35;10.83;;;10.00;;
735;SDS011;352;48.626;9.238;2023-08-21T08:55:05;12.00;;;10.30;;
735;SDS011;352;48.626;9.238;2023-08-21T08:57:33;10.33;;;9.63;;
735;SDS011;352;48.626;9.238;2023-08-21T09:00:01;11.67;;;10.57;;
735;SDS011;352;48.626;9.238;2023-08-21T09:02:29;10.07;;;9.17;;
735;SDS011;352;48.626;9.238;2023-08-21T09:04:55;10.67;;;9.63;;
735;SDS011;352;48.626;9.238;2023-08-21T09:07:22;10.27;;;9.30;;
735;SDS011;352;48.626;9.238;2023-08-21T09:09:49;10.90;;;9.90;;
735;SDS011;352;48.626;9.238;2023-08-21T09:12:17;11.93;;;9.70;;
735;SDS011;352;48.626;9.238;2023-08-21T09:14:45;10.17;;;9.13;;
735;SDS011;352;48.626;9.238;2023-08-21T09:17:14;9.97;;;9.03;;
735;SDS011;352;48.626;9.238;2023-08-21T09:19:42;10.53;;;9.63;;
735;SDS011;352;48.626;9.238;2023-08-21T09:22:09;10.67;;;9.57;;
735;SDS011;352;48.626;9.238;2023-08-21T09:24:37;13.60;;;9.40;;
735;SDS011;352;48.626;9.238;2023-08-21T09:27:10;11.43;;;10.40;;
735;SDS011;352;48.626;9.238;2023-08-21T09:29:40;10.80;;;9.80;;
735;SDS011;352;48.626;9.238;2023-08-21T09:32:08;12.03;;;10.90;;
735;SDS011;352;48.626;9.238;2023-08-21T09:34:36;9.63;;;8.93;;
735;SDS011;352;48.626;9.238;2023-08-21T09:37:04;10.70;;;9.77;;
735;SDS011;352;48.626;9.238;2023-08-21T09:39:32;12.80;;;11.83;;
735;SDS011;352;48.626;9.238;2023-08-21T09:41:59;27.53;;;25.93;;
735;SDS011;352;48.626;9.238;2023-08-21T09:44:27;10.80;;;10.00;;
735;SDS011;352;48.626;9.238;2023-08-21T09:46:53;9.87;;;9.07;;
735;SDS011;352;48.626;9.238;2023-08-21T09:49:20;11.13;;;10.30;;
735;SDS011;352;48.626;9.238;2023-08-21T09:51:49;29.00;;;27.43;;
735;SDS011;352;48.626;9.238;2023-08-21T09:54:19;30.10;;;28.23;;
735;SDS011;352;48.626;9.238;2023-08-21T09:56:47;15.40;;;14.33;;
735;SDS011;352;48.626;9.238;2023-08-21T09:59:14;13.93;;;12.93;;
735;SDS011;352;48.626;9.238;2023-08-21T10:01:43;14.63;;;13.57;;
735;SDS011;352;48.626;9.238;2023-08-21T10:04:11;31.43;;;29.73;;
735;SDS011;352;48.626;9.238;2023-08-21T10:06:39;28.90;;;27.43;;
735;SDS011;352;48.626;9.238;2023-08-21T10:09:07;28.67;;;27.17;;
735;SDS011;352;48.626;9.238;2023-08-21T10:11:35;28.60;;;26.47;;
735;SDS011;352;48.626;9.238;2023-08-21T10:14:01;33.77;;;32.40;;
735;SDS011;352;48.626;9.238;2023-08-21T10:16:28;31.53;;;28.60;;
735;SDS011;352;48.626;9.238;2023-08-21T10:18:55;12.30;;;11.07;;
735;SDS011;352;48.626;9.238;2023-08-21T10:21:31;18.03;;;16.97;;
735;SDS011;352;48.626;9.238;2023-08-21T10:24:02;34.07;;;32.43;;
735;SDS011;352;48.626;9.238;2023-08-21T10:26:30;46.43;;;42.20;;
735;SDS011;352;48.626;9.238;2023-08-21T10:28:58;21.73;;;20.37;;
735;SDS011;352;48.626;9.238;2023-08-21T10:31:28;33.27;;;31.60;;
735;SDS011;352;48.626;9.238;2023-08-21T10:33:57;39.27;;;37.13;;
735;SDS011;352;48.626;9.238;2023-08-21T10:39:29;18.63;;;16.57;;
735;SDS011;352;48.626;9.238;2023-08-21T10:42:00;43.43;;;41.43;;
735;SDS011;352;48.626;9.238;2023-08-21T10:44:34;32.93;;;31.43;;
735;SDS011;352;48.626;9.238;2023-08-21T10:47:18;31.93;;;30.33;;
735;SDS011;352;48.626;9.238;2023-08-21T10:49:46;28.37;;;26.90;;
735;SDS011;352;48.626;9.238;2023-08-21T10:52:13;23.43;;;22.03;;
735;SDS011;352;48.626;9.238;2023-08-21T10:54:46;12.57;;;11.63;;
735;SDS011;352;48.626;9.238;2023-08-21T10:57:15;15.57;;;11.17;;
735;SDS011;352;48.626;9.238;2023-08-21T10:59:51;15.83;;;14.93;;
735;SDS011;352;48.626;9.238;2023-08-21T11:02:19;23.07;;;21.73;;
735;SDS011;352;48.626;9.238;2023-08-21T11:04:46;15.70;;;14.40;;
735;SDS011;352;48.626;9.238;2023-08-21T11:07:14;19.30;;;17.60;;
735;SDS011;352;48.626;9.238;2023-08-21T11:09:41;21.83;;;20.60;;
735;SDS011;352;48.626;9.238;2023-08-21T11:12:09;9.13;;;8.33;;
735;SDS011;352;48.626;9.238;2023-08-21T11:14:38;10.13;;;9.40;;
735;SDS011;352;48.626;9.238;2023-08-21T11:17:05;13.23;;;12.20;;
735;SDS011;352;48.626;9.238;2023-08-21T11:19:34;19.23;;;18.10;;
735;SDS011;352;48.626;9.238;2023-08-21T11:22:02;10.90;;;9.97;;
735;SDS011;352;48.626;9.238;2023-08-21T11:24:31;11.83;;;10.97;;
735;SDS011;352;48.626;9.238;2023-08-21T11:27:05;10.43;;;9.40;;
735;SDS011;352;48.626;9.238;2023-08-21T11:29:32;9.57;;;8.30;;
735;SDS011;352;48.626;9.238;2023-08-21T11:32:07;10.53;;;9.50;;
735;SDS011;352;48.626;9.238;2023-08-21T11:34:34;9.47;;;8.70;;
735;SDS011;352;48.626;9.238;2023-08-21T11:37:02;10.60;;;9.60;;
735;SDS011;352;48.626;9.238;2023-08-21T11:39:38;9.20;;;8.40;;
735;SDS011;352;48.626;9.238;2023-08-21T11:42:08;11.73;;;10.53;;
735;SDS011;352;48.626;9.238;2023-08-21T11:44:40;10.70;;;9.70;;
735;SDS011;352;48.626;9.238;2023-08-21T11:47:08;15.87;;;11.57;;
735;SDS011;352;48.626;9.238;2023-08-21T11:49:38;10.63;;;8.90;;
735;SDS011;352;48.626;9.238;2023-08-21T11:52:07;8.77;;;8.10;;
735;SDS011;352;48.626;9.238;2023-08-21T11:54:34;9.87;;;8.67;;
735;SDS011;352;48.626;9.238;2023-08-21T11:57:05;10.50;;;8.73;;
735;SDS011;352;48.626;9.238;2023-08-21T11:59:38;9.33;;;8.47;;
735;SDS011;352;48.626;9.238;2023-08-21T12:02:12;10.03;;;9.13;;
735;SDS011;352;48.626;9.238;2023-08-21T12:04:41;10.20;;;9.40;;
735;SDS011;352;48.626;9.238;2023-08-21T12:07:08;13.23;;;10.87;;
735;SDS011;352;48.626;9.238;2023-08-21T12:09:35;9.20;;;8.37;;
735;SDS011;352;48.626;9.238;2023-08-21T12:12:02;9.43;;;8.60;;
735;SDS011;352;48.626;9.238;2023-08-21T12:14:29;10.33;;;9.53;;
735;SDS011;352;48.626;9.238;2023-08-21T12:16:56;11.43;;;9.40;;
735;SDS011;352;48.626;9.238;2023-08-21T12:19:24;9.30;;;8.50;;
735;SDS011;352;48.626;9.238;2023-08-21T12:21:51;10.33;;;9.33;;
735;SDS011;352;48.626;9.238;2023-08-21T12:24:18;11.50;;;9.70;;
735;SDS011;352;48.626;9.238;2023-08-21T12:26:44;10.43;;;9.30;;
735;SDS011;352;48.626;9.238;2023-08-21T12:29:11;10.07;;;9.23;;
735;SDS011;352;48.626;9.238;2023-08-21T12:31:38;10.33;;;9.43;;
735;SDS011;352;48.626;9.238;2023-08-21T12:34:04;9.43;;;8.63;;
735;SDS011;352;48.626;9.238;2023-08-21T12:36:33;10.33;;;9.37;;
735;SDS011;352;48.626;9.238;2023-08-21T12:39:00;11.23;;;10.20;;
735;SDS011;352;48.626;9.238;2023-08-21T12:41:28;10.53;;;9.67;;
735;SDS011;352;48.626;9.238;2023-08-21T12:43:55;11.30;;;10.17;;
735;SDS011;352;48.626;9.238;2023-08-21T12:46:22;11.43;;;10.47;;
735;SDS011;352;48.626;9.238;2023-08-21T12:48:49;10.10;;;9.13;;
735;SDS011;352;48.626;9.238;2023-08-21T12:51:16;11.17;;;9.23;;
735;SDS011;352;48.626;9.238;2023-08-21T12:53:44;9.60;;;8.80;;
735;SDS011;352;48.626;9.238;2023-08-21T12:56:10;10.07;;;9.10;;
735;SDS011;352;48.626;9.238;2023-08-21T12:58:37;10.17;;;9.20;;
735;SDS011;352;48.626;9.238;2023-08-21T13:01:04;11.80;;;9.93;;
735;SDS011;352;48.626;9.238;2023-08-21T13:03:32;10.17;;;9.27;;
735;SDS011;352;48.626;9.238;2023-08-21T13:05:59;11.23;;;10.00;;
735;SDS011;352;48.626;9.238;2023-08-21T13:08:26;9.50;;;8.70;;
735;SDS011;352;48.626;9.238;2023-08-21T13:10:54;10.80;;;9.80;;
735;SDS011;352;48.626;9.238;2023-08-21T13:13:20;10.30;;;9.30;;
735;SDS011;352;48.626;9.238;2023-08-21T13:15:46;11.23;;;10.23;;
735;SDS011;352;48.626;9.238;2023-08-21T13:18:13;10.63;;;9.63;;
735;SDS011;352;48.626;9.238;2023-08-21T13:20:40;9.90;;;8.97;;
735;SDS011;352;48.626;9.238;2023-08-21T13:23:07;9.20;;;8.40;;
735;SDS011;352;48.626;9.238;2023-08-21T13:25:34;10.00;;;9.23;;
735;SDS011;352;48.626;9.238;2023-08-21T13:28:02;10.23;;;9.40;;
735;SDS011;352;48.626;9.238;2023-08-21T13:30:30;8.97;;;8.27;;
735;SDS011;352;48.626;9.238;2023-08-21T13:32:56;10.10;;;9.20;;
735;SDS011;352;48.626;9.238;2023-08-21T13:35:23;10.50;;;9.50;;
735;SDS011;352;48.626;9.238;2023-08-21T13:37:50;9.10;;;8.50;;
735;SDS011;352;48.626;9.238;2023-08-21T13:40:17;8.40;;;7.80;;
735;SDS011;352;48.626;9.238;2023-08-21T13:42:45;8.37;;;7.73;;
735;SDS011;352;48.626;9.238;2023-08-21T13:45:15;9.60;;;8.90;;
735;SDS011;352;48.626;9.238;2023-08-21T13:47:43;9.67;;;8.77;;
735;SDS011;352;48.626;9.238;2023-08-21T13:50:12;11.33;;;9.40;;
735;SDS011;352;48.626;9.238;2023-08-21T13:52:40;9.57;;;8.77;;
735;SDS011;352;48.626;9.238;2023-08-21T13:55:07;9.23;;;8.30;;
735;SDS011;352;48.626;9.238;2023-08-21T13:57:35;9.07;;;8.13;;
735;SDS011;352;48.626;9.238;2023-08-21T14:00:03;9.20;;;8.50;;
735;SDS011;352;48.626;9.238;2023-08-21T14:02:33;8.80;;;8.10;;
735;SDS011;352;48.626;9.238;2023-08-21T14:05:00;9.77;;;8.90;;
735;SDS011;352;48.626;9.238;2023-08-21T14:07:28;12.87;;;8.10;;
735;SDS011;352;48.626;9.238;2023-08-21T14:09:55;9.70;;;8.90;;
735;SDS011;352;48.626;9.238;2023-08-21T14:12:21;9.13;;;8.33;;
735;SDS011;352;48.626;9.238;2023-08-21T14:14:48;9.80;;;9.10;;
735;SDS011;352;48.626;9.238;2023-08-21T14:17:15;9.97;;;8.97;;
735;SDS011;352;48.626;9.238;2023-08-21T14:19:43;11.00;;;9.47;;
735;SDS011;352;48.626;9.238;2023-08-21T14:22:10;9.43;;;8.73;;
735;SDS011;352;48.626;9.238;2023-08-21T14:24:37;11.63;;;8.80;;
735;SDS011;352;48.626;9.238;2023-08-21T14:27:04;10.30;;;9.30;;
735;SDS011;352;48.626;9.238;2023-08-21T14:29:31;9.17;;;8.53;;
735;SDS011;352;48.626;9.238;2023-08-21T14:31:57;9.10;;;8.50;;
735;SDS011;352;48.626;9.238;2023-08-21T14:34:25;8.33;;;7.67;;
735;SDS011;352;48.626;9.238;2023-08-21T14:36:53;9.40;;;8.40;;
735;SDS011;352;48.626;9.238;2023-08-21T14:39:21;10.50;;;9.50;;
735;SDS011;352;48.626;9.238;2023-08-21T14:41:52;10.63;;;8.43;;
735;SDS011;352;48.626;9.238;2023-08-21T14:44:19;8.73;;;8.03;;
735;SDS011;352;48.626;9.238;2023-08-21T14:46:46;9.90;;;8.20;;
735;SDS011;352;48.626;9.238;2023-08-21T14:49:13;9.77;;;8.77;;
735;SDS011;352;48.626;9.238;2023-08-21T14:51:40;9.57;;;8.60;;
735;SDS011;352;48.626;9.238;2023-08-21T14:54:08;8.87;;;8.03;;
735;SDS011;352;48.626;9.238;2023-08-21T14:56:34;10.40;;;9.50;;
735;SDS011;352;48.626;9.238;2023-08-21T14:59:01;11.13;;;8.73;;
735;SDS011;352;48.626;9.238;2023-08-21T15:01:28;8.90;;;8.10;;
735;SDS011;352;48.626;9.238;2023-08-21T15:03:55;8.80;;;7.87;;
735;SDS011;352;48.626;9.238;2023-08-21T15:06:22;9.33;;;8.13;;
735;SDS011;352;48.626;9.238;2023-08-21T15:08:49;10.33;;;9.30;;
735;SDS011;352;48.626;9.238;2023-08-21T15:11:17;9.67;;;8.80;;
735;SDS011;352;48.626;9.238;2023-08-21T15:13:43;12.90;;;11.70;;
735;SDS011;352;48.626;9.238;2023-08-21T15:16:10;20.67;;;18.73;;
735;SDS011;352;48.626;9.238;2023-08-21T15:18:37;15.73;;;14.13;;
735;SDS011;352;48.626;9.238;2023-08-21T15:21:03;10.13;;;8.90;;
735;SDS011;352;48.626;9.238;2023-08-21T15:23:30;9.37;;;8.47;;
735;SDS011;352;48.626;9.238;2023-08-21T15:25:57;9.87;;;9.07;;
735;SDS011;352;48.626;9.238;2023-08-21T15:28:25;9.20;;;8.30;;
735;SDS011;352;48.626;9.238;2023-08-21T15:30:52;9.17;;;8.47;;
735;SDS011;352;48.626;9.238;2023-08-21T15:33:18;9.60;;;8.53;;
735;SDS011;352;48.626;9.238;2023-08-21T15:35:45;8.20;;;7.40;;
735;SDS011;352;48.626;9.238;2023-08-21T15:38:12;9.57;;;8.77;;
735;SDS011;352;48.626;9.238;2023-08-21T15:40:38;9.80;;;7.70;;
735;SDS011;352;48.626;9.238;2023-08-21T15:43:05;8.90;;;8.20;;
735;SDS011;352;48.626;9.238;2023-08-21T15:45:34;8.80;;;8.20;;
735;SDS011;352;48.626;9.238;2023-08-21T15:48:01;9.10;;;8.20;;
735;SDS011;352;48.626;9.238;2023-08-21T15:50:28;9.53;;;8.60;;
735;SDS011;352;48.626;9.238;2023-08-21T15:52:55;10.80;;;8.50;;
735;SDS011;352;48.626;9.238;2023-08-21T15:55:21;9.50;;;8.60;;
735;SDS011;352;48.626;9.238;2023-08-21T15:57:48;10.03;;;8.10;;
735;SDS011;352;48.626;9.238;2023-08-21T16:00:15;9.77;;;8.50;;
735;SDS011;352;48.626;9.238;2023-08-21T16:02:43;11.93;;;7.93;;
735;SDS011;352;48.626;9.238;2023-08-21T16:05:10;9.03;;;8.33;;
735;SDS011;352;48.626;9.238;2023-08-21T16:07:36;9.50;;;8.03;;
735;SDS011;352;48.626;9.238;2023-08-21T16:10:03;9.37;;;8.27;;
735;SDS011;352;48.626;9.238;2023-08-21T16:12:31;9.33;;;8.27;;
735;SDS011;352;48.626;9.238;2023-08-21T16:14:57;8.17;;;7.57;;
735;SDS011;352;48.626;9.238;2023-08-21T16:17:24;10.67;;;8.60;;
735;SDS011;352;48.626;9.238;2023-08-21T16:19:52;9.33;;;8.50;;
735;SDS011;352;48.626;9.238;2023-08-21T16:22:20;9.30;;;8.60;;
735;SDS011;352;48.626;9.238;2023-08-21T16:24:47;8.30;;;7.60;;
735;SDS011;352;48.626;9.238;2023-08-21T16:27:14;9.50;;;8.70;;
735;SDS011;352;48.626;9.238;2023-08-21T16:29:40;10.07;;;7.83;;
735;SDS011;352;48.626;9.238;2023-08-21T16:32:07;8.23;;;7.60;;
735;SDS011;352;48.626;9.238;2023-08-21T16:34:34;7.93;;;7.33;;
735;SDS011;352;48.626;9.238;2023-08-21T16:37:02;8.80;;;7.93;;
735;SDS011;352;48.626;9.238;2023-08-21T16:39:29;8.90;;;8.00;;
735;SDS011;352;48.626;9.238;2023-08-21T16:41:56;10.30;;;8.50;;